Time;durP1;ratioP1;P1;durP2;ratioP2;P2;SDS_P1;SDS_P2;PMS_P1;PMS_P2;Temp;Humidity;BMP_temperature;BMP_pressure;BME280_temperature;BME280_humidity;BME280_pressure;Samples;Min_cycle;Max_cycle;Signal;HPM_P1;HPM_P2
2021/05/06 00:31:51;;;;;;;1.73;1.27;;;;;;;;;;5027800;28;20992;-69
2021/05/06 00:33:52;;;;;;;2.33;1.40;;;;;;;;;;5032185;28;20879;-70
2021/05/06 00:36:18;;;;;;;3.53;1.80;;;;;;;;;;5031796;28;20864;-69
2021/05/06 00:38:51;;;;;;;2.30;1.40;;;;;;;;;;5035360;28;20406;-69
2021/05/06 00:45:05;;;;;;;7.90;1.80;;;;;;;;;;5036424;28;20887;-70
2021/05/06 00:53:46;;;;;;;3.70;1.67;;;;;;;;;;5012326;28;20474;-70
2021/05/06 00:57:50;;;;;;;3.13;1.47;;;;;;;;;;5035700;28;20791;-70
2021/05/06 01:13:00;;;;;;;4.73;1.70;;;;;;;;;;5035856;28;20426;-70
2021/05/06 01:15:27;;;;;;;2.67;1.60;;;;;;;;;;5038597;28;20418;-69
2021/05/06 01:17:53;;;;;;;2.53;1.90;;;;;;;;;;5035722;28;20523;-70
2021/05/06 01:20:19;;;;;;;3.47;2.00;;;;;;;;;;5035006;28;20424;-69
2021/05/06 01:22:45;;;;;;;2.90;1.97;;;;;;;;;;5035425;28;20422;-70
2021/05/06 01:25:12;;;;;;;6.90;2.03;;;;;;;;;;5035222;28;20406;-70
2021/05/06 01:27:56;;;;;;;2.20;2.00;;;;;;;;;;5034504;28;20458;-70
2021/05/06 01:30:37;;;;;;;3.67;1.70;;;;;;;;;;5035222;28;20534;-70
2021/05/06 01:36:37;;;;;;;3.53;1.50;;;;;;;;;;5035120;28;20689;-70
2021/05/06 01:44:07;;;;;;;4.27;1.70;;;;;;;;;;5035234;28;20390;-70
2021/05/06 02:00:21;;;;;;;2.63;1.40;;;;;;;;;;5034872;28;20499;-70
2021/05/06 02:02:47;;;;;;;3.00;1.40;;;;;;;;;;5024653;28;20519;-70
2021/05/06 02:05:14;;;;;;;3.03;1.80;;;;;;;;;;5028904;28;20842;-70
2021/05/06 02:07:42;;;;;;;2.93;1.87;;;;;;;;;;5036747;28;20962;-70
2021/05/06 02:10:10;;;;;;;4.63;1.70;;;;;;;;;;5037476;28;20458;-70
2021/05/06 02:12:38;;;;;;;2.70;1.53;;;;;;;;;;5037589;28;20449;-70
2021/05/06 02:15:10;;;;;;;6.80;2.47;;;;;;;;;;5037213;28;20477;-70
2021/05/06 02:17:36;;;;;;;3.77;2.00;;;;;;;;;;5038124;28;20843;-70
2021/05/06 02:20:03;;;;;;;2.83;1.70;;;;;;;;;;5018940;28;20423;-70
2021/05/06 02:22:29;;;;;;;2.33;1.60;;;;;;;;;;5014729;28;20422;-70
2021/05/06 02:24:55;;;;;;;7.33;2.13;;;;;;;;;;5027311;28;20561;-70
2021/05/06 02:27:21;;;;;;;2.80;1.60;;;;;;;;;;5034094;28;20952;-70
2021/05/06 02:29:48;;;;;;;3.03;1.30;;;;;;;;;;5021034;28;20463;-70
2021/05/06 02:32:14;;;;;;;2.87;1.40;;;;;;;;;;5014288;28;20822;-70
2021/05/06 02:34:41;;;;;;;2.93;1.57;;;;;;;;;;5026300;28;20427;-70
2021/05/06 02:37:07;;;;;;;2.73;1.63;;;;;;;;;;5033602;28;20426;-70
2021/05/06 02:39:33;;;;;;;4.07;1.63;;;;;;;;;;5032394;28;20431;-70
2021/05/06 02:41:59;;;;;;;3.10;1.33;;;;;;;;;;5033773;28;20409;-69
2021/05/06 02:44:25;;;;;;;4.80;1.63;;;;;;;;;;5033296;28;20521;-69
2021/05/06 02:46:51;;;;;;;2.20;1.57;;;;;;;;;;5033991;28;20430;-69
2021/05/06 02:49:19;;;;;;;2.17;1.20;;;;;;;;;;5029015;28;20463;-69
2021/05/06 02:51:50;;;;;;;3.30;1.37;;;;;;;;;;5033703;28;20426;-69
2021/05/06 02:54:16;;;;;;;4.07;1.83;;;;;;;;;;5033087;28;20480;-69
2021/05/06 03:04:38;;;;;;;3.73;1.47;;;;;;;;;;5033250;28;20785;-69
2021/05/06 03:07:06;;;;;;;4.90;1.63;;;;;;;;;;5033428;28;20743;-69
2021/05/06 03:22:52;;;;;;;3.20;1.30;;;;;;;;;;5033556;28;20490;-69
2021/05/06 03:25:20;;;;;;;4.90;1.30;;;;;;;;;;5030439;28;20545;-69
2021/05/06 03:35:37;;;;;;;3.07;1.50;;;;;;;;;;5032401;28;20430;-70
2021/05/06 03:44:27;;;;;;;7.73;1.90;;;;;;;;;;5013255;28;20394;-70
2021/05/06 04:18:37;;;;;;;2.87;1.40;;;;;;;;;;5036721;28;20393;-70
2021/05/06 04:37:12;;;;;;;7.13;2.03;;;;;;;;;;5034111;28;20463;-70
2021/05/06 04:39:45;;;;;;;4.63;1.80;;;;;;;;;;5016362;28;20413;-71
2021/05/06 04:45:18;;;;;;;3.43;2.00;;;;;;;;;;5016398;28;20391;-71
2021/05/06 05:06:14;;;;;;;3.90;2.00;;;;;;;;;;5016765;28;20438;-71
2021/05/06 05:08:48;;;;;;;7.67;1.97;;;;;;;;;;5028452;28;20433;-70
2021/05/06 05:27:08;;;;;;;3.50;2.10;;;;;;;;;;5035595;28;20521;-70
2021/05/06 05:29:34;;;;;;;2.43;1.90;;;;;;;;;;5033642;28;20452;-70
2021/05/06 05:32:01;;;;;;;3.30;1.50;;;;;;;;;;5034012;28;20410;-70
2021/05/06 05:34:33;;;;;;;3.97;2.27;;;;;;;;;;5030195;28;20434;-71
2021/05/06 05:36:59;;;;;;;3.10;1.70;;;;;;;;;;5015703;28;20512;-71
2021/05/06 05:39:39;;;;;;;5.40;1.90;;;;;;;;;;5032495;28;20967;-71
2021/05/06 05:55:24;;;;;;;5.73;2.23;;;;;;;;;;5015322;28;20442;-71
2021/05/06 05:57:53;;;;;;;5.00;2.67;;;;;;;;;;5014687;28;20508;-71
2021/05/06 06:00:20;;;;;;;8.67;2.30;;;;;;;;;;5014891;28;20407;-71
2021/05/06 06:02:46;;;;;;;3.20;1.90;;;;;;;;;;5016109;28;20888;-71
2021/05/06 06:05:12;;;;;;;5.67;2.30;;;;;;;;;;5034398;28;20409;-71
2021/05/06 06:07:38;;;;;;;6.50;1.97;;;;;;;;;;5033588;28;20462;-68
2021/05/06 06:10:05;;;;;;;5.30;2.10;;;;;;;;;;5014432;28;20936;-71
2021/05/06 06:12:31;;;;;;;3.40;2.23;;;;;;;;;;5014682;28;20407;-71
2021/05/06 06:15:03;;;;;;;3.30;1.97;;;;;;;;;;5015151;28;20432;-71
2021/05/06 06:17:34;;;;;;;5.10;2.23;;;;;;;;;;5014349;28;20482;-71
2021/05/06 06:20:01;;;;;;;2.87;1.80;;;;;;;;;;5034239;28;20471;-71
2021/05/06 06:22:29;;;;;;;5.03;1.77;;;;;;;;;;5028011;28;20458;-68
2021/05/06 06:24:55;;;;;;;4.90;1.97;;;;;;;;;;5015284;28;20426;-69
2021/05/06 06:27:21;;;;;;;7.27;1.90;;;;;;;;;;5014570;28;20427;-69
2021/05/06 06:29:48;;;;;;;2.93;1.67;;;;;;;;;;5014131;28;20457;-70
2021/05/06 06:32:16;;;;;;;4.03;1.97;;;;;;;;;;5014464;28;20411;-70
2021/05/06 06:34:42;;;;;;;4.53;1.83;;;;;;;;;;5018798;28;20434;-70
2021/05/06 06:37:08;;;;;;;5.07;1.90;;;;;;;;;;5014581;28;20515;-70
2021/05/06 06:39:39;;;;;;;5.67;1.97;;;;;;;;;;5029223;28;20434;-70
2021/05/06 06:42:05;;;;;;;5.20;1.70;;;;;;;;;;5034377;28;20393;-70
2021/05/06 06:44:33;;;;;;;3.93;1.77;;;;;;;;;;5034573;28;20437;-70
2021/05/06 06:47:02;;;;;;;5.60;2.47;;;;;;;;;;5036961;28;20531;-71
2021/05/06 06:49:29;;;;;;;5.37;2.00;;;;;;;;;;5036633;28;20884;-70
2021/05/06 06:51:56;;;;;;;3.83;2.00;;;;;;;;;;5043334;28;20445;-73
2021/05/06 06:54:24;;;;;;;5.00;2.00;;;;;;;;;;5036842;28;20446;-73
2021/05/06 06:56:50;;;;;;;3.60;1.97;;;;;;;;;;5049463;28;20467;-72
2021/05/06 06:59:16;;;;;;;4.70;1.97;;;;;;;;;;5041598;28;20430;-72
2021/05/06 07:01:42;;;;;;;4.80;1.97;;;;;;;;;;5034727;28;20424;-70
2021/05/06 07:04:08;;;;;;;10.65;2.38;;;;;;;;;;5032614;28;20851;-71
2021/05/06 07:06:34;;;;;;;4.93;1.97;;;;;;;;;;5032105;28;20198;-70
2021/05/06 07:09:00;;;;;;;7.70;1.70;;;;;;;;;;5031484;28;20421;-70
2021/05/06 07:11:26;;;;;;;8.27;2.10;;;;;;;;;;5028222;28;20407;-71
2021/05/06 07:13:52;;;;;;;4.77;1.80;;;;;;;;;;5027242;28;20561;-73
2021/05/06 07:16:18;;;;;;;6.60;2.00;;;;;;;;;;5028767;28;20450;-74
2021/05/06 07:18:44;;;;;;;4.77;1.93;;;;;;;;;;5045199;22;20529;-65
2021/05/06 07:21:10;;;;;;;4.10;1.70;;;;;;;;;;5013994;28;21188;-65
2021/05/06 07:23:36;;;;;;;4.17;1.63;;;;;;;;;;5012539;28;20420;-65
2021/05/06 07:26:03;;;;;;;4.33;1.90;;;;;;;;;;5008847;28;20434;-67
2021/05/06 07:28:31;;;;;;;4.53;1.83;;;;;;;;;;5009874;28;20508;-67
2021/05/06 07:31:00;;;;;;;5.20;1.70;;;;;;;;;;5013151;28;20454;-67
2021/05/06 07:33:26;;;;;;;9.53;1.87;;;;;;;;;;5017550;28;20435;-67
2021/05/06 07:35:52;;;;;;;4.90;1.60;;;;;;;;;;5048475;28;20474;-67
2021/05/06 07:38:19;;;;;;;2.20;1.33;;;;;;;;;;5010029;28;20458;-67
2021/05/06 07:40:45;;;;;;;6.32;2.03;;;;;;;;;;5013693;28;20423;-67
2021/05/06 07:43:11;;;;;;;5.83;2.37;;;;;;;;;;5011059;28;20857;-67
2021/05/06 07:45:37;;;;;;;3.80;1.90;;;;;;;;;;5012427;28;20867;-67
2021/05/06 07:48:04;;;;;;;4.33;1.70;;;;;;;;;;5044994;28;20446;-67
2021/05/06 07:50:30;;;;;;;4.87;1.63;;;;;;;;;;5012024;28;20454;-67
2021/05/06 07:53:35;;;;;;;3.53;1.83;;;;;;;;;;5012727;28;20425;-69
2021/05/06 07:55:48;;;;;;;2.90;2.00;;;;;;;;;;5013291;28;20396;-68
2021/05/06 07:58:15;;;;;;;3.10;1.50;;;;;;;;;;5012502;28;20434;-68
2021/05/06 08:00:42;;;;;;;2.70;1.43;;;;;;;;;;5011109;28;20508;-68
2021/05/06 08:03:08;;;;;;;3.03;1.50;;;;;;;;;;5012311;28;20427;-67
2021/05/06 08:05:35;;;;;;;3.37;1.90;;;;;;;;;;5008693;28;20435;-67
2021/05/06 08:08:01;;;;;;;4.80;1.93;;;;;;;;;;5008046;28;21029;-67
2021/05/06 08:10:27;;;;;;;5.23;1.90;;;;;;;;;;5011786;28;20459;-67
2021/05/06 08:12:54;;;;;;;4.60;1.63;;;;;;;;;;5012546;28;20419;-68
2021/05/06 08:15:20;;;;;;;7.03;2.63;;;;;;;;;;5010047;28;20437;-68
2021/05/06 08:17:46;;;;;;;3.10;1.50;;;;;;;;;;5011699;28;20415;-68
2021/05/06 08:20:14;;;;;;;4.83;2.00;;;;;;;;;;5010587;28;20435;-68
2021/05/06 08:22:40;;;;;;;5.00;1.87;;;;;;;;;;5011175;28;20423;-68
2021/05/06 08:25:07;;;;;;;5.00;1.90;;;;;;;;;;5009895;28;20855;-68
2021/05/06 08:27:33;;;;;;;5.50;2.07;;;;;;;;;;5012098;28;20431;-67
2021/05/06 08:30:00;;;;;;;3.43;1.60;;;;;;;;;;5010823;28;20460;-67
2021/05/06 08:32:27;;;;;;;6.37;1.60;;;;;;;;;;5012037;28;20808;-68
2021/05/06 08:34:53;;;;;;;2.50;1.57;;;;;;;;;;5009402;28;20430;-68
2021/05/06 08:37:19;;;;;;;4.03;1.80;;;;;;;;;;5009708;28;20427;-68
2021/05/06 08:39:45;;;;;;;4.23;1.97;;;;;;;;;;5009847;28;20443;-67
2021/05/06 08:42:12;;;;;;;3.10;1.70;;;;;;;;;;5010597;28;20780;-68
2021/05/06 08:44:39;;;;;;;3.87;2.13;;;;;;;;;;5007708;28;20442;-68
2021/05/06 08:47:07;;;;;;;3.90;2.00;;;;;;;;;;5013044;28;20430;-67
2021/05/06 08:49:33;;;;;;;6.03;1.90;;;;;;;;;;5009738;28;20485;-68
2021/05/06 08:52:00;;;;;;;7.13;2.07;;;;;;;;;;5020311;28;20938;-67
2021/05/06 08:54:26;;;;;;;3.67;1.47;;;;;;;;;;5011133;28;20424;-68
2021/05/06 08:56:53;;;;;;;4.53;1.77;;;;;;;;;;5011565;28;20435;-67
2021/05/06 08:59:19;;;;;;;4.60;2.20;;;;;;;;;;5008888;28;20895;-68
2021/05/06 09:01:46;;;;;;;2.67;1.70;;;;;;;;;;5013868;28;20419;-68
2021/05/06 09:04:13;;;;;;;5.40;1.83;;;;;;;;;;5020912;28;20422;-68
2021/05/06 09:07:17;;;;;;;5.10;1.50;;;;;;;;;;5013828;28;20428;-68
2021/05/06 09:09:50;;;;;;;8.27;2.00;;;;;;;;;;4972788;28;20591;-69
2021/05/06 09:12:19;;;;;;;4.00;1.60;;;;;;;;;;4969564;28;20576;-68
2021/05/06 09:14:50;;;;;;;4.50;1.90;;;;;;;;;;4986266;28;20790;-68
2021/05/06 09:17:25;;;;;;;7.47;1.90;;;;;;;;;;5015304;28;20411;-68
2021/05/06 09:20:09;;;;;;;5.00;1.70;;;;;;;;;;5012694;28;20853;-68
2021/05/06 09:22:36;;;;;;;6.90;1.87;;;;;;;;;;4997507;28;20773;-68
2021/05/06 09:25:20;;;;;;;6.77;2.27;;;;;;;;;;5001505;28;20448;-67
2021/05/06 09:27:46;;;;;;;4.93;1.87;;;;;;;;;;5010913;28;20415;-68
2021/05/06 09:30:13;;;;;;;4.83;1.80;;;;;;;;;;5014910;28;20455;-68
2021/05/06 09:32:39;;;;;;;5.40;2.30;;;;;;;;;;5014996;28;20408;-68
2021/05/06 09:35:05;;;;;;;6.93;1.90;;;;;;;;;;5014522;28;20427;-68
2021/05/06 09:37:32;;;;;;;5.60;2.20;;;;;;;;;;5046210;28;20426;-69
2021/05/06 09:40:07;;;;;;;7.80;1.90;;;;;;;;;;5046148;28;20797;-69
2021/05/06 09:42:45;;;;;;;4.23;2.33;;;;;;;;;;5010683;28;20867;-69
2021/05/06 09:45:19;;;;;;;5.77;1.77;;;;;;;;;;5011918;28;20836;-69
2021/05/06 09:47:45;;;;;;;3.83;1.73;;;;;;;;;;5011906;28;20501;-67
2021/05/06 09:50:25;;;;;;;4.20;1.50;;;;;;;;;;5013997;28;20481;-68
2021/05/06 09:52:54;;;;;;;5.63;1.83;;;;;;;;;;5013461;28;20427;-68
2021/05/06 09:55:22;;;;;;;5.43;2.20;;;;;;;;;;5009861;28;20424;-69
2021/05/06 09:57:48;;;;;;;6.20;1.93;;;;;;;;;;5019888;28;20407;-70
2021/05/06 10:00:18;;;;;;;4.40;1.63;;;;;;;;;;5015688;28;20852;-69
2021/05/06 10:02:47;;;;;;;8.27;2.27;;;;;;;;;;5014896;28;20420;-69
2021/05/06 10:05:17;;;;;;;4.60;1.80;;;;;;;;;;5013142;28;20797;-69
2021/05/06 10:07:52;;;;;;;4.03;1.50;;;;;;;;;;5014748;28;20427;-70
2021/05/06 10:10:18;;;;;;;3.17;1.90;;;;;;;;;;5017211;28;20474;-68
2021/05/06 10:12:44;;;;;;;7.90;2.50;;;;;;;;;;5018190;28;20747;-69
2021/05/06 10:15:13;;;;;;;10.93;1.67;;;;;;;;;;5013311;28;20979;-69
2021/05/06 10:17:40;;;;;;;2.83;1.40;;;;;;;;;;5013407;28;20441;-69
2021/05/06 10:20:06;;;;;;;3.73;1.30;;;;;;;;;;5010910;28;22540;-68
2021/05/06 10:22:32;;;;;;;5.87;1.80;;;;;;;;;;5013910;28;20818;-69
2021/05/06 10:25:03;;;;;;;6.17;1.77;;;;;;;;;;5012540;28;20434;-68
2021/05/06 10:27:29;;;;;;;4.63;1.50;;;;;;;;;;5014199;28;20959;-68
2021/05/06 10:29:56;;;;;;;4.10;2.10;;;;;;;;;;5013702;28;20874;-68
2021/05/06 10:32:23;;;;;;;2.67;1.80;;;;;;;;;;5015875;28;20510;-68
2021/05/06 10:34:54;;;;;;;2.73;1.17;;;;;;;;;;5012437;28;20450;-68
2021/05/06 10:37:41;;;;;;;1.93;1.27;;;;;;;;;;5014001;28;20438;-68
2021/05/06 10:40:27;;;;;;;2.83;1.40;;;;;;;;;;5015186;28;20435;-68
2021/05/06 10:42:54;;;;;;;4.80;1.80;;;;;;;;;;5014028;28;20435;-67
2021/05/06 10:45:23;;;;;;;2.80;1.57;;;;;;;;;;5012698;28;20800;-67
2021/05/06 10:47:49;;;;;;;7.50;1.60;;;;;;;;;;5009417;28;20509;-67
2021/05/06 10:50:17;;;;;;;3.30;1.70;;;;;;;;;;5009722;28;20463;-67
2021/05/06 10:52:49;;;;;;;3.73;1.30;;;;;;;;;;5013259;28;20419;-67
2021/05/06 10:55:16;;;;;;;3.90;1.80;;;;;;;;;;5013042;28;20431;-67
2021/05/06 10:57:42;;;;;;;3.90;1.90;;;;;;;;;;5044718;28;20449;-67
2021/05/06 11:00:14;;;;;;;2.40;1.50;;;;;;;;;;5041695;28;20442;-68
2021/05/06 11:02:42;;;;;;;2.37;1.50;;;;;;;;;;5015505;28;20415;-68
2021/05/06 11:05:18;;;;;;;3.63;1.80;;;;;;;;;;5026175;28;20514;-68
2021/05/06 11:08:04;;;;;;;6.70;1.70;;;;;;;;;;5043530;28;20498;-68
2021/05/06 11:10:31;;;;;;;3.37;1.33;;;;;;;;;;5012440;28;20477;-69
2021/05/06 11:12:59;;;;;;;3.03;1.90;;;;;;;;;;5013281;28;20760;-69
2021/05/06 11:15:26;;;;;;;3.83;1.87;;;;;;;;;;5013400;28;20924;-68
2021/05/06 11:17:52;;;;;;;5.43;1.67;;;;;;;;;;5014372;28;20452;-67
2021/05/06 11:20:18;;;;;;;3.40;1.50;;;;;;;;;;5012035;28;20436;-67
2021/05/06 11:22:48;;;;;;;3.57;1.70;;;;;;;;;;5013177;28;20431;-67
2021/05/06 11:27:59;;;;;;;2.87;1.50;;;;;;;;;;5006914;28;20459;-67
2021/05/06 11:30:36;;;;;;;3.10;1.40;;;;;;;;;;5012324;28;20475;-68
2021/05/06 11:33:18;;;;;;;3.63;1.40;;;;;;;;;;5008177;28;20424;-67
2021/05/06 11:35:54;;;;;;;4.07;1.57;;;;;;;;;;5012607;28;20411;-67
2021/05/06 11:38:20;;;;;;;4.40;1.63;;;;;;;;;;5013075;28;20463;-67
2021/05/06 11:40:47;;;;;;;2.77;1.40;;;;;;;;;;5012325;28;20451;-67
2021/05/06 11:43:22;;;;;;;4.93;1.73;;;;;;;;;;5043549;28;20431;-67
2021/05/06 11:45:48;;;;;;;2.90;1.83;;;;;;;;;;5005551;28;20423;-67
2021/05/06 11:48:16;;;;;;;4.50;1.57;;;;;;;;;;5012955;28;20841;-67
2021/05/06 11:50:45;;;;;;;2.33;1.47;;;;;;;;;;5010373;28;20465;-67
2021/05/06 11:53:18;;;;;;;6.13;1.70;;;;;;;;;;5011166;28;20420;-67
2021/05/06 11:55:44;;;;;;;3.10;1.60;;;;;;;;;;5008794;28;20501;-67
2021/05/06 11:58:11;;;;;;;4.50;1.60;;;;;;;;;;5010796;28;20453;-67
2021/05/06 12:00:41;;;;;;;3.10;1.40;;;;;;;;;;5044477;28;20427;-67
2021/05/06 12:03:09;;;;;;;5.13;1.57;;;;;;;;;;5012309;28;20506;-67
2021/05/06 12:05:55;;;;;;;7.40;2.00;;;;;;;;;;5008938;28;20498;-68
2021/05/06 12:08:24;;;;;;;3.00;1.53;;;;;;;;;;5010354;28;20459;-68
2021/05/06 12:10:50;;;;;;;3.47;1.60;;;;;;;;;;5040730;28;20470;-68
2021/05/06 12:13:23;;;;;;;5.17;1.57;;;;;;;;;;5011352;28;20517;-67
2021/05/06 12:15:49;;;;;;;4.00;1.67;;;;;;;;;;5011232;28;20951;-68
2021/05/06 12:18:15;;;;;;;4.17;1.70;;;;;;;;;;5010475;28;20992;-68
2021/05/06 12:20:58;;;;;;;5.90;3.60;;;;;;;;;;5013997;28;20477;-68
2021/05/06 12:23:25;;;;;;;3.00;1.50;;;;;;;;;;5012387;28;20423;-68
2021/05/06 12:25:51;;;;;;;3.70;2.13;;;;;;;;;;5012322;28;20881;-68
2021/05/06 12:28:17;;;;;;;2.80;1.23;;;;;;;;;;5011825;28;20542;-68
2021/05/06 12:30:44;;;;;;;5.07;1.40;;;;;;;;;;5009932;28;20552;-68
2021/05/06 12:33:10;;;;;;;2.23;1.67;;;;;;;;;;5013951;28;20416;-68
2021/05/06 12:35:52;;;;;;;2.73;1.67;;;;;;;;;;5021541;28;20447;-68
2021/05/06 12:38:19;;;;;;;4.80;1.70;;;;;;;;;;5021148;28;20440;-68
2021/05/06 12:40:45;;;;;;;5.93;1.70;;;;;;;;;;5015515;28;20427;-68
2021/05/06 12:43:19;;;;;;;4.10;1.27;;;;;;;;;;5016825;28;20590;-67
2021/05/06 12:45:57;;;;;;;3.73;1.57;;;;;;;;;;5029081;28;20944;-67
2021/05/06 12:48:40;;;;;;;2.43;1.40;;;;;;;;;;5017526;28;20427;-68
2021/05/06 12:51:07;;;;;;;3.10;1.43;;;;;;;;;;5017060;28;20466;-68
2021/05/06 12:53:33;;;;;;;2.37;1.30;;;;;;;;;;5014165;28;20435;-67
2021/05/06 12:56:00;;;;;;;9.43;2.13;;;;;;;;;;5014955;28;20431;-67
2021/05/06 12:58:29;;;;;;;2.83;1.67;;;;;;;;;;5014896;28;20435;-67
2021/05/06 13:00:59;;;;;;;2.83;1.50;;;;;;;;;;5047472;28;20430;-67
2021/05/06 13:03:35;;;;;;;3.30;2.10;;;;;;;;;;5015536;28;20436;-67
2021/05/06 13:06:05;;;;;;;2.83;1.17;;;;;;;;;;5014877;28;20429;-67
2021/05/06 13:08:44;;;;;;;3.30;1.40;;;;;;;;;;5018034;28;20528;-67
2021/05/06 13:11:11;;;;;;;4.03;1.73;;;;;;;;;;5028315;28;20454;-67
2021/05/06 13:13:37;;;;;;;3.60;1.70;;;;;;;;;;5015421;28;20420;-68
2021/05/06 13:16:04;;;;;;;2.50;1.60;;;;;;;;;;5015404;28;20438;-67
2021/05/06 13:18:30;;;;;;;3.57;1.83;;;;;;;;;;5029471;22;20501;-82
2021/05/06 13:20:56;;;;;;;4.53;1.77;;;;;;;;;;5030851;28;20939;-81
2021/05/06 13:23:29;;;;;;;3.57;1.60;;;;;;;;;;5055107;28;20431;-82
2021/05/06 13:25:56;;;;;;;4.47;1.77;;;;;;;;;;5055768;28;20978;-82
2021/05/06 13:28:32;;;;;;;3.07;1.67;;;;;;;;;;5054751;28;20426;-83
2021/05/06 13:31:06;;;;;;;3.87;1.80;;;;;;;;;;5056080;28;20480;-81
2021/05/06 13:33:32;;;;;;;8.80;3.13;;;;;;;;;;5040681;28;20791;-80
2021/05/06 13:36:12;;;;;;;2.40;1.50;;;;;;;;;;5051480;28;20422;-81
2021/05/06 13:39:01;;;;;;;4.30;2.27;;;;;;;;;;5058757;28;20479;-81
2021/05/06 13:41:34;;;;;;;5.07;1.90;;;;;;;;;;5048026;28;20485;-80
2021/05/06 13:44:05;;;;;;;3.00;1.70;;;;;;;;;;5050593;28;20423;-84
2021/05/06 13:46:33;;;;;;;3.33;2.17;;;;;;;;;;5045236;28;20426;-82
2021/05/06 13:48:59;;;;;;;3.60;2.10;;;;;;;;;;5057529;28;20459;-83
2021/05/06 13:51:28;;;;;;;2.87;2.03;;;;;;;;;;5053436;28;20435;-83
2021/05/06 13:53:54;;;;;;;3.10;1.80;;;;;;;;;;5054638;28;20791;-82
2021/05/06 13:56:20;;;;;;;2.57;1.57;;;;;;;;;;5042262;28;20406;-81
2021/05/06 13:58:48;;;;;;;3.40;1.77;;;;;;;;;;5068793;28;20422;-82
2021/05/06 14:01:14;;;;;;;3.20;1.70;;;;;;;;;;5063520;28;20504;-82
2021/05/06 14:03:40;;;;;;;2.43;1.57;;;;;;;;;;5050045;28;20491;-82
2021/05/06 14:06:06;;;;;;;3.50;1.97;;;;;;;;;;5049177;28;20426;-81
2021/05/06 14:08:33;;;;;;;5.70;2.10;;;;;;;;;;5062477;28;20449;-82
2021/05/06 14:10:59;;;;;;;4.60;1.60;;;;;;;;;;5064322;28;20949;-82
2021/05/06 14:13:26;;;;;;;4.90;2.13;;;;;;;;;;5047001;28;20426;-82
2021/05/06 14:15:52;;;;;;;3.90;2.20;;;;;;;;;;5044370;28;20418;-82
2021/05/06 14:18:18;;;;;;;4.70;2.20;;;;;;;;;;5047069;28;20942;-82
2021/05/06 14:20:45;;;;;;;3.07;1.80;;;;;;;;;;5054873;28;20755;-81
2021/05/06 14:23:12;;;;;;;4.53;2.80;;;;;;;;;;5057149;28;20456;-81
2021/05/06 14:25:39;;;;;;;2.90;1.67;;;;;;;;;;5050800;28;20428;-83
2021/05/06 14:28:06;;;;;;;4.00;2.70;;;;;;;;;;5061763;28;20406;-82
2021/05/06 14:30:32;;;;;;;3.47;2.23;;;;;;;;;;5056433;28;20477;-82
2021/05/06 14:32:59;;;;;;;5.47;1.87;;;;;;;;;;5054867;28;20457;-81
2021/05/06 14:35:25;;;;;;;6.57;3.20;;;;;;;;;;5069088;28;20418;-81
2021/05/06 14:37:51;;;;;;;5.10;1.97;;;;;;;;;;5060350;28;20456;-81
2021/05/06 14:40:17;;;;;;;4.93;2.50;;;;;;;;;;5070943;28;20402;-82
2021/05/06 14:42:43;;;;;;;6.77;3.50;;;;;;;;;;5067508;28;20446;-83
2021/05/06 14:45:10;;;;;;;3.30;2.17;;;;;;;;;;5066844;28;20441;-83
2021/05/06 14:47:39;;;;;;;3.93;2.27;;;;;;;;;;5051872;28;20426;-83
2021/05/06 14:50:06;;;;;;;4.40;1.90;;;;;;;;;;5063781;28;20465;-81
2021/05/06 14:52:33;;;;;;;5.87;2.40;;;;;;;;;;5061653;28;20444;-82
2021/05/06 14:54:59;;;;;;;3.60;2.50;;;;;;;;;;5057471;28;20414;-83
2021/05/06 14:57:25;;;;;;;3.50;2.63;;;;;;;;;;5057094;28;20972;-81
2021/05/06 14:59:51;;;;;;;5.93;2.53;;;;;;;;;;5051384;28;20426;-80
2021/05/06 15:02:17;;;;;;;5.50;2.73;;;;;;;;;;5054005;28;21044;-82
2021/05/06 15:08:05;;;;;;;;;;;;;;;;;;;;;
2021/05/06 15:10:32;;;;;;;4.60;2.60;;;;;;;;;;5059016;28;20551;-82
2021/05/06 15:12:58;;;;;;;4.60;2.40;;;;;;;;;;5056532;28;20451;-82
2021/05/06 15:15:24;;;;;;;5.80;2.83;;;;;;;;;;5066612;28;20409;-83
2021/05/06 15:17:52;;;;;;;9.03;3.13;;;;;;;;;;5059250;28;20442;-83
2021/05/06 15:20:21;;;;;;;6.67;2.60;;;;;;;;;;5056607;28;21084;-82
2021/05/06 15:22:47;;;;;;;6.10;2.60;;;;;;;;;;5051532;28;20596;-82
2021/05/06 15:25:13;;;;;;;8.13;3.50;;;;;;;;;;5055927;28;20425;-82
2021/05/06 15:27:44;;;;;;;5.00;2.80;;;;;;;;;;5055575;28;20459;-82
2021/05/06 15:30:12;;;;;;;2.60;2.13;;;;;;;;;;5051681;28;20509;-82
2021/05/06 15:32:38;;;;;;;4.07;2.10;;;;;;;;;;5074996;28;20437;-81
2021/05/06 15:35:05;;;;;;;4.73;2.53;;;;;;;;;;5076475;28;20492;-81
2021/05/06 15:37:32;;;;;;;3.83;2.60;;;;;;;;;;5064675;28;20457;-83
2021/05/06 15:39:58;;;;;;;3.27;2.37;;;;;;;;;;5054826;28;20418;-82
2021/05/06 15:42:24;;;;;;;4.00;2.23;;;;;;;;;;5068994;28;20441;-81
2021/05/06 15:44:50;;;;;;;5.00;2.50;;;;;;;;;;5053369;28;20418;-83
2021/05/06 15:47:16;;;;;;;5.57;2.40;;;;;;;;;;5049257;28;20429;-81
2021/05/06 15:49:42;;;;;;;7.87;2.57;;;;;;;;;;5044214;28;20459;-82
2021/05/06 15:52:09;;;;;;;5.80;2.43;;;;;;;;;;5047645;28;20540;-82
2021/05/06 15:54:37;;;;;;;5.90;2.80;;;;;;;;;;5051168;28;20442;-83
2021/05/06 15:57:03;;;;;;;3.10;2.30;;;;;;;;;;5055546;28;20430;-83
2021/05/06 15:59:29;;;;;;;4.37;3.10;;;;;;;;;;5057461;28;20417;-82
2021/05/06 16:01:55;;;;;;;6.20;2.90;;;;;;;;;;5066603;28;20478;-81
2021/05/06 16:04:26;;;;;;;8.80;3.80;;;;;;;;;;5045540;28;20428;-82
2021/05/06 16:06:52;;;;;;;6.20;3.17;;;;;;;;;;5058390;28;20505;-83
2021/05/06 16:09:18;;;;;;;5.17;2.90;;;;;;;;;;5061198;28;20440;-82
2021/05/06 16:11:44;;;;;;;4.27;3.20;;;;;;;;;;5065832;28;20465;-83
2021/05/06 16:14:10;;;;;;;3.73;2.80;;;;;;;;;;5057001;28;20435;-83
2021/05/06 16:16:36;;;;;;;4.90;3.23;;;;;;;;;;5057816;28;20410;-82
2021/05/06 16:19:03;;;;;;;7.03;3.50;;;;;;;;;;5055472;23;20581;-73
2021/05/06 16:21:29;;;;;;;3.63;2.90;;;;;;;;;;5032469;28;20422;-66
2021/05/06 16:23:55;;;;;;;5.53;3.10;;;;;;;;;;5017806;28;20422;-67
2021/05/06 16:26:21;;;;;;;6.10;3.30;;;;;;;;;;5038989;28;21140;-68
2021/05/06 16:28:47;;;;;;;4.80;3.30;;;;;;;;;;5025702;28;20695;-68
2021/05/06 16:31:13;;;;;;;4.50;2.60;;;;;;;;;;5023346;28;20962;-67
2021/05/06 16:33:46;;;;;;;2.90;2.30;;;;;;;;;;5018299;28;20168;-69
2021/05/06 16:41:25;;;;;;;4.60;2.50;;;;;;;;;;5016610;28;20447;-68
2021/05/06 16:44:02;;;;;;;3.83;2.23;;;;;;;;;;5015494;28;20439;-68
2021/05/06 16:46:28;;;;;;;5.68;2.63;;;;;;;;;;5015829;28;20419;-67
2021/05/06 16:48:54;;;;;;;6.80;3.20;;;;;;;;;;5015393;28;20193;-67
2021/05/06 16:51:20;;;;;;;4.80;3.37;;;;;;;;;;5003330;28;20456;-67
2021/05/06 16:53:49;;;;;;;3.80;2.90;;;;;;;;;;5015907;28;20419;-68
2021/05/06 16:56:15;;;;;;;8.20;3.50;;;;;;;;;;5016672;28;20858;-68
2021/05/06 16:58:41;;;;;;;5.70;2.73;;;;;;;;;;5014584;28;20447;-68
2021/05/06 17:01:07;;;;;;;3.90;3.50;;;;;;;;;;5016603;28;20403;-68
2021/05/06 17:03:33;;;;;;;7.30;3.50;;;;;;;;;;5012290;28;20506;-67
2021/05/06 17:05:59;;;;;;;4.80;3.37;;;;;;;;;;5015753;28;20433;-65
2021/05/06 17:08:25;;;;;;;7.70;3.90;;;;;;;;;;5015771;28;20430;-64
2021/05/06 17:10:51;;;;;;;6.05;3.70;;;;;;;;;;5003699;28;20444;-64
2021/05/06 17:13:17;;;;;;;7.40;5.07;;;;;;;;;;5006388;28;20180;-64
2021/05/06 17:15:43;;;;;;;5.07;3.77;;;;;;;;;;5008362;28;20416;-66
2021/05/06 17:18:10;;;;;;;6.43;4.60;;;;;;;;;;5010194;28;20442;-66
2021/05/06 17:20:36;;;;;;;5.37;3.87;;;;;;;;;;5008235;28;20450;-65
2021/05/06 17:23:02;;;;;;;7.53;3.70;;;;;;;;;;4997830;28;20417;-62
2021/05/06 17:25:28;;;;;;;4.70;4.07;;;;;;;;;;5015202;28;20274;-62
2021/05/06 17:27:54;;;;;;;6.37;4.50;;;;;;;;;;5013958;28;20467;-63
2021/05/06 17:30:20;;;;;;;8.40;5.87;;;;;;;;;;5012465;28;20462;-64
2021/05/06 17:32:47;;;;;;;7.93;4.73;;;;;;;;;;5005912;28;20974;-61
2021/05/06 17:35:14;;;;;;;8.97;5.73;;;;;;;;;;5010108;28;20466;-67
2021/05/06 17:37:41;;;;;;;9.60;4.83;;;;;;;;;;5011112;28;20436;-64
2021/05/06 17:40:11;;;;;;;6.00;4.20;;;;;;;;;;5014732;28;20416;-64
2021/05/06 17:42:37;;;;;;;8.10;4.90;;;;;;;;;;5014528;28;20508;-61
2021/05/06 17:45:04;;;;;;;6.10;4.70;;;;;;;;;;5012843;28;20423;-64
2021/05/06 17:47:30;;;;;;;6.43;4.13;;;;;;;;;;5014355;28;20427;-63
2021/05/06 17:49:56;;;;;;;7.83;4.83;;;;;;;;;;5010012;28;20437;-64
2021/05/06 17:52:22;;;;;;;6.50;5.10;;;;;;;;;;5011675;28;20502;-65
2021/05/06 17:54:48;;;;;;;5.80;4.20;;;;;;;;;;5014431;28;20442;-68
2021/05/06 17:57:14;;;;;;;5.23;4.03;;;;;;;;;;5010440;28;20173;-65
2021/05/06 17:59:40;;;;;;;8.13;4.90;;;;;;;;;;5014718;28;20557;-63
2021/05/06 18:02:07;;;;;;;7.00;4.85;;;;;;;;;;5009041;28;20473;-64
2021/05/06 18:04:34;;;;;;;8.60;5.17;;;;;;;;;;5010044;28;20254;-62
2021/05/06 18:07:00;;;;;;;6.13;5.00;;;;;;;;;;5014867;28;20412;-64
2021/05/06 18:09:28;;;;;;;7.37;4.60;;;;;;;;;;5014876;28;20458;-63
2021/05/06 18:12:15;;;;;;;7.00;4.40;;;;;;;;;;5014434;28;20415;-63
2021/05/06 18:14:41;;;;;;;7.45;4.78;;;;;;;;;;4994533;28;20427;-64
2021/05/06 18:17:07;;;;;;;5.70;4.87;;;;;;;;;;5000893;28;20188;-64
2021/05/06 18:19:34;;;;;;;6.03;4.50;;;;;;;;;;5014858;28;20812;-63
2021/05/06 18:22:01;;;;;;;8.05;4.65;;;;;;;;;;5013896;28;20395;-65
2021/05/06 18:24:27;;;;;;;5.93;4.35;;;;;;;;;;5014351;28;20441;-63
2021/05/06 18:26:56;;;;;;;8.18;4.55;;;;;;;;;;5014334;28;20468;-64
2021/05/06 18:29:23;;;;;;;6.73;3.90;;;;;;;;;;5014702;28;20204;-64
2021/05/06 18:31:49;;;;;;;8.27;3.90;;;;;;;;;;5012205;28;20912;-62